sensor_id;sensor_type;location;lat;lon;timestamp;P1;durP1;ratioP1;P2;durP2;ratioP2
48263;SDS011;34086;51.076;13.722;2023-02-08T00:00:34;127.07;;;64.72;;
48263;SDS011;34086;51.076;13.722;2023-02-08T00:01:34;129.18;;;65.18;;
48263;SDS011;34086;51.076;13.722;2023-02-08T00:02:35;131.63;;;65.07;;
48263;SDS011;34086;51.076;13.722;2023-02-08T00:03:35;125.45;;;63.75;;
48263;SDS011;34086;51.076;13.722;2023-02-08T00:04:36;131.48;;;66.00;;
48263;SDS011;34086;51.076;13.722;2023-02-08T00:05:37;124.32;;;63.55;;
48263;SDS011;34086;51.076;13.722;2023-02-08T00:06:38;120.97;;;61.22;;
48263;SDS011;34086;51.076;13.722;2023-02-08T00:07:38;123.15;;;63.53;;
48263;SDS011;34086;51.076;13.722;2023-02-08T00:08:39;117.13;;;60.95;;
48263;SDS011;34086;51.076;13.722;2023-02-08T00:09:40;123.85;;;61.30;;
48263;SDS011;34086;51.076;13.722;2023-02-08T00:10:41;121.20;;;61.92;;
48263;SDS011;34086;51.076;13.722;2023-02-08T00:11:42;118.57;;;61.83;;
48263;SDS011;34086;51.076;13.722;2023-02-08T00:12:43;120.57;;;61.80;;
48263;SDS011;34086;51.076;13.722;2023-02-08T00:13:44;119.38;;;61.45;;
48263;SDS011;34086;51.076;13.722;2023-02-08T00:14:44;117.43;;;61.63;;
48263;SDS011;34086;51.076;13.722;2023-02-08T00:15:45;117.28;;;62.15;;
48263;SDS011;34086;51.076;13.722;2023-02-08T00:16:45;114.45;;;61.47;;
48263;SDS011;34086;51.076;13.722;2023-02-08T00:17:46;115.40;;;60.10;;
48263;SDS011;34086;51.076;13.722;2023-02-08T00:18:47;128.38;;;62.53;;
48263;SDS011;34086;51.076;13.722;2023-02-08T00:19:48;117.93;;;61.67;;
48263;SDS011;34086;51.076;13.722;2023-02-08T00:20:48;116.90;;;60.83;;
48263;SDS011;34086;51.076;13.722;2023-02-08T00:21:49;113.88;;;59.80;;
48263;SDS011;34086;51.076;13.722;2023-02-08T00:22:50;114.82;;;59.72;;
48263;SDS011;34086;51.076;13.722;2023-02-08T00:23:50;110.10;;;59.05;;
48263;SDS011;34086;51.076;13.722;2023-02-08T00:24:51;119.97;;;60.97;;
48263;SDS011;34086;51.076;13.722;2023-02-08T00:25:52;115.85;;;60.75;;
48263;SDS011;34086;51.076;13.722;2023-02-08T00:26:52;120.70;;;60.20;;
48263;SDS011;34086;51.076;13.722;2023-02-08T00:27:53;112.53;;;58.58;;
48263;SDS011;34086;51.076;13.722;2023-02-08T00:28:53;118.30;;;60.58;;
48263;SDS011;34086;51.076;13.722;2023-02-08T00:29:54;114.63;;;59.30;;
48263;SDS011;34086;51.076;13.722;2023-02-08T00:30:54;120.50;;;61.53;;
48263;SDS011;34086;51.076;13.722;2023-02-08T00:31:55;110.75;;;58.40;;
48263;SDS011;34086;51.076;13.722;2023-02-08T00:32:55;115.55;;;60.53;;
48263;SDS011;34086;51.076;13.722;2023-02-08T00:33:56;117.43;;;60.95;;
48263;SDS011;34086;51.076;13.722;2023-02-08T00:34:59;110.70;;;59.08;;
48263;SDS011;34086;51.076;13.722;2023-02-08T00:36:00;112.22;;;58.60;;
48263;SDS011;34086;51.076;13.722;2023-02-08T00:37:02;116.32;;;60.47;;
48263;SDS011;34086;51.076;13.722;2023-02-08T00:38:02;112.43;;;59.53;;
48263;SDS011;34086;51.076;13.722;2023-02-08T00:39:03;117.65;;;60.60;;
48263;SDS011;34086;51.076;13.722;2023-02-08T00:40:04;118.22;;;60.25;;
48263;SDS011;34086;51.076;13.722;2023-02-08T00:41:05;118.68;;;61.67;;
48263;SDS011;34086;51.076;13.722;2023-02-08T00:42:05;117.72;;;61.95;;
48263;SDS011;34086;51.076;13.722;2023-02-08T00:43:06;110.88;;;57.60;;
48263;SDS011;34086;51.076;13.722;2023-02-08T00:44:08;112.15;;;58.78;;
48263;SDS011;34086;51.076;13.722;2023-02-08T00:45:08;114.63;;;59.70;;
48263;SDS011;34086;51.076;13.722;2023-02-08T00:46:09;116.25;;;59.45;;
48263;SDS011;34086;51.076;13.722;2023-02-08T00:47:10;109.50;;;58.13;;
48263;SDS011;34086;51.076;13.722;2023-02-08T00:48:11;112.47;;;57.47;;
48263;SDS011;34086;51.076;13.722;2023-02-08T00:49:12;111.75;;;58.65;;
48263;SDS011;34086;51.076;13.722;2023-02-08T00:50:13;109.15;;;56.38;;
48263;SDS011;34086;51.076;13.722;2023-02-08T00:51:14;112.38;;;57.67;;
48263;SDS011;34086;51.076;13.722;2023-02-08T00:52:15;109.68;;;57.58;;
48263;SDS011;34086;51.076;13.722;2023-02-08T00:53:17;111.63;;;57.83;;
48263;SDS011;34086;51.076;13.722;2023-02-08T00:54:18;108.72;;;56.42;;
48263;SDS011;34086;51.076;13.722;2023-02-08T00:55:20;112.80;;;57.67;;
48263;SDS011;34086;51.076;13.722;2023-02-08T00:56:20;111.88;;;59.45;;
48263;SDS011;34086;51.076;13.722;2023-02-08T00:57:21;112.95;;;58.15;;
48263;SDS011;34086;51.076;13.722;2023-02-08T00:58:22;111.18;;;58.55;;
48263;SDS011;34086;51.076;13.722;2023-02-08T00:59:22;112.28;;;58.20;;
48263;SDS011;34086;51.076;13.722;2023-02-08T01:00:23;115.70;;;59.10;;
48263;SDS011;34086;51.076;13.722;2023-02-08T01:01:24;118.05;;;58.55;;
48263;SDS011;34086;51.076;13.722;2023-02-08T01:02:26;115.53;;;58.78;;
48263;SDS011;34086;51.076;13.722;2023-02-08T01:03:27;116.03;;;59.55;;
48263;SDS011;34086;51.076;13.722;2023-02-08T01:04:27;112.22;;;59.03;;
48263;SDS011;34086;51.076;13.722;2023-02-08T01:05:28;115.63;;;59.17;;
48263;SDS011;34086;51.076;13.722;2023-02-08T01:06:29;112.88;;;59.05;;
48263;SDS011;34086;51.076;13.722;2023-02-08T01:07:30;108.32;;;58.47;;
48263;SDS011;34086;51.076;13.722;2023-02-08T01:08:30;110.45;;;58.00;;
48263;SDS011;34086;51.076;13.722;2023-02-08T01:09:31;113.15;;;58.67;;
48263;SDS011;34086;51.076;13.722;2023-02-08T01:10:32;114.25;;;59.30;;
48263;SDS011;34086;51.076;13.722;2023-02-08T01:11:33;107.97;;;57.88;;
48263;SDS011;34086;51.076;13.722;2023-02-08T01:12:33;107.60;;;55.72;;
48263;SDS011;34086;51.076;13.722;2023-02-08T01:13:35;111.97;;;57.88;;
48263;SDS011;34086;51.076;13.722;2023-02-08T01:14:37;110.88;;;56.97;;
48263;SDS011;34086;51.076;13.722;2023-02-08T01:15:39;110.95;;;57.35;;
48263;SDS011;34086;51.076;13.722;2023-02-08T01:16:41;106.97;;;56.53;;
48263;SDS011;34086;51.076;13.722;2023-02-08T01:17:41;111.90;;;57.13;;
48263;SDS011;34086;51.076;13.722;2023-02-08T01:18:43;109.68;;;57.08;;
48263;SDS011;34086;51.076;13.722;2023-02-08T01:19:45;108.20;;;56.22;;
48263;SDS011;34086;51.076;13.722;2023-02-08T01:20:46;113.60;;;58.33;;
48263;SDS011;34086;51.076;13.722;2023-02-08T01:21:46;111.65;;;57.13;;
48263;SDS011;34086;51.076;13.722;2023-02-08T01:22:49;109.38;;;56.42;;
48263;SDS011;34086;51.076;13.722;2023-02-08T01:23:50;115.68;;;57.42;;
48263;SDS011;34086;51.076;13.722;2023-02-08T01:24:51;116.15;;;57.97;;
48263;SDS011;34086;51.076;13.722;2023-02-08T01:25:52;109.03;;;57.13;;
48263;SDS011;34086;51.076;13.722;2023-02-08T01:26:52;107.28;;;55.42;;
48263;SDS011;34086;51.076;13.722;2023-02-08T01:27:53;115.00;;;58.63;;
48263;SDS011;34086;51.076;13.722;2023-02-08T01:28:56;104.70;;;55.22;;
48263;SDS011;34086;51.076;13.722;2023-02-08T01:29:57;110.03;;;57.58;;
48263;SDS011;34086;51.076;13.722;2023-02-08T01:30:57;110.97;;;57.47;;
48263;SDS011;34086;51.076;13.722;2023-02-08T01:31:58;113.25;;;57.75;;
48263;SDS011;34086;51.076;13.722;2023-02-08T01:33:02;111.43;;;58.53;;
48263;SDS011;34086;51.076;13.722;2023-02-08T01:34:04;111.70;;;58.00;;
48263;SDS011;34086;51.076;13.722;2023-02-08T01:35:05;108.47;;;56.58;;
48263;SDS011;34086;51.076;13.722;2023-02-08T01:36:06;110.32;;;57.13;;
48263;SDS011;34086;51.076;13.722;2023-02-08T01:37:07;106.40;;;55.67;;
48263;SDS011;34086;51.076;13.722;2023-02-08T01:38:08;115.45;;;56.05;;
48263;SDS011;34086;51.076;13.722;2023-02-08T01:39:09;111.88;;;57.15;;
48263;SDS011;34086;51.076;13.722;2023-02-08T01:40:10;106.72;;;54.88;;
48263;SDS011;34086;51.076;13.722;2023-02-08T01:41:13;106.30;;;55.63;;
48263;SDS011;34086;51.076;13.722;2023-02-08T01:42:17;107.63;;;55.78;;
48263;SDS011;34086;51.076;13.722;2023-02-08T01:43:22;108.82;;;55.05;;
48263;SDS011;34086;51.076;13.722;2023-02-08T01:46:19;109.93;;;54.67;;
48263;SDS011;34086;51.076;13.722;2023-02-08T01:47:21;107.93;;;56.25;;
48263;SDS011;34086;51.076;13.722;2023-02-08T01:48:23;110.47;;;55.70;;
48263;SDS011;34086;51.076;13.722;2023-02-08T01:49:27;113.88;;;57.88;;
48263;SDS011;34086;51.076;13.722;2023-02-08T01:50:33;111.60;;;55.92;;
48263;SDS011;34086;51.076;13.722;2023-02-08T01:51:53;108.90;;;55.50;;
48263;SDS011;34086;51.076;13.722;2023-02-08T01:53:00;107.35;;;55.22;;
48263;SDS011;34086;51.076;13.722;2023-02-08T01:54:01;113.72;;;57.78;;
48263;SDS011;34086;51.076;13.722;2023-02-08T01:55:26;108.25;;;56.03;;
48263;SDS011;34086;51.076;13.722;2023-02-08T01:56:30;110.85;;;56.30;;
48263;SDS011;34086;51.076;13.722;2023-02-08T01:57:33;113.15;;;57.03;;
48263;SDS011;34086;51.076;13.722;2023-02-08T01:58:34;109.03;;;55.75;;
48263;SDS011;34086;51.076;13.722;2023-02-08T01:59:40;107.65;;;56.15;;
48263;SDS011;34086;51.076;13.722;2023-02-08T02:00:44;110.45;;;56.35;;
48263;SDS011;34086;51.076;13.722;2023-02-08T02:01:46;108.47;;;56.67;;
48263;SDS011;34086;51.076;13.722;2023-02-08T02:02:50;108.13;;;55.13;;
48263;SDS011;34086;51.076;13.722;2023-02-08T02:03:53;109.55;;;55.85;;
48263;SDS011;34086;51.076;13.722;2023-02-08T02:04:54;106.75;;;55.72;;
48263;SDS011;34086;51.076;13.722;2023-02-08T02:06:00;109.35;;;56.10;;
48263;SDS011;34086;51.076;13.722;2023-02-08T02:07:06;109.90;;;54.95;;
48263;SDS011;34086;51.076;13.722;2023-02-08T02:08:07;106.72;;;55.17;;
48263;SDS011;34086;51.076;13.722;2023-02-08T02:09:23;104.30;;;54.63;;
48263;SDS011;34086;51.076;13.722;2023-02-08T02:10:28;108.10;;;55.47;;
48263;SDS011;34086;51.076;13.722;2023-02-08T02:11:31;105.20;;;55.15;;
48263;SDS011;34086;51.076;13.722;2023-02-08T02:12:32;104.70;;;54.10;;
48263;SDS011;34086;51.076;13.722;2023-02-08T02:13:34;109.65;;;55.22;;
48263;SDS011;34086;51.076;13.722;2023-02-08T02:14:36;108.38;;;55.08;;
48263;SDS011;34086;51.076;13.722;2023-02-08T02:15:38;105.35;;;54.47;;
48263;SDS011;34086;51.076;13.722;2023-02-08T02:16:40;107.93;;;54.42;;
48263;SDS011;34086;51.076;13.722;2023-02-08T02:17:40;107.47;;;55.78;;
48263;SDS011;34086;51.076;13.722;2023-02-08T02:18:42;110.20;;;55.85;;
48263;SDS011;34086;51.076;13.722;2023-02-08T02:19:51;107.25;;;56.40;;
48263;SDS011;34086;51.076;13.722;2023-02-08T02:22:51;106.43;;;54.63;;
48263;SDS011;34086;51.076;13.722;2023-02-08T02:24:26;114.50;;;55.35;;
48263;SDS011;34086;51.076;13.722;2023-02-08T02:28:33;117.55;;;56.15;;
48263;SDS011;34086;51.076;13.722;2023-02-08T02:29:55;110.68;;;54.35;;
48263;SDS011;34086;51.076;13.722;2023-02-08T02:31:12;110.97;;;54.92;;
48263;SDS011;34086;51.076;13.722;2023-02-08T02:34:01;88.40;;;42.08;;
48263;SDS011;34086;51.076;13.722;2023-02-08T02:35:07;106.75;;;53.65;;
48263;SDS011;34086;51.076;13.722;2023-02-08T02:36:27;108.60;;;54.53;;
48263;SDS011;34086;51.076;13.722;2023-02-08T02:39:12;109.10;;;54.15;;
48263;SDS011;34086;51.076;13.722;2023-02-08T02:40:35;103.95;;;51.70;;
48263;SDS011;34086;51.076;13.722;2023-02-08T02:43:49;109.18;;;53.03;;
48263;SDS011;34086;51.076;13.722;2023-02-08T02:45:04;125.05;;;56.08;;
48263;SDS011;34086;51.076;13.722;2023-02-08T02:46:26;132.63;;;57.95;;
48263;SDS011;34086;51.076;13.722;2023-02-08T02:50:22;136.48;;;61.08;;
48263;SDS011;34086;51.076;13.722;2023-02-08T02:51:37;127.95;;;59.17;;
48263;SDS011;34086;51.076;13.722;2023-02-08T02:52:47;138.65;;;61.15;;
48263;SDS011;34086;51.076;13.722;2023-02-08T02:54:26;158.95;;;67.25;;
48263;SDS011;34086;51.076;13.722;2023-02-08T02:55:32;140.02;;;63.63;;
48263;SDS011;34086;51.076;13.722;2023-02-08T02:56:37;133.73;;;59.65;;
48263;SDS011;34086;51.076;13.722;2023-02-08T02:57:42;134.55;;;60.47;;
48263;SDS011;34086;51.076;13.722;2023-02-08T02:58:45;126.30;;;59.85;;
48263;SDS011;34086;51.076;13.722;2023-02-08T02:59:46;131.15;;;61.13;;
48263;SDS011;34086;51.076;13.722;2023-02-08T03:00:51;130.48;;;61.67;;
48263;SDS011;34086;51.076;13.722;2023-02-08T03:01:56;129.05;;;61.85;;
48263;SDS011;34086;51.076;13.722;2023-02-08T03:02:57;126.93;;;59.40;;
48263;SDS011;34086;51.076;13.722;2023-02-08T03:03:58;117.93;;;56.88;;
48263;SDS011;34086;51.076;13.722;2023-02-08T03:04:58;117.45;;;56.38;;
48263;SDS011;34086;51.076;13.722;2023-02-08T03:06:00;123.18;;;59.88;;
48263;SDS011;34086;51.076;13.722;2023-02-08T03:08:23;126.07;;;58.67;;
48263;SDS011;34086;51.076;13.722;2023-02-08T03:11:14;116.85;;;55.00;;
48263;SDS011;34086;51.076;13.722;2023-02-08T03:12:39;119.03;;;55.78;;
48263;SDS011;34086;51.076;13.722;2023-02-08T03:18:03;130.30;;;57.15;;
48263;SDS011;34086;51.076;13.722;2023-02-08T03:19:30;124.63;;;56.92;;
48263;SDS011;34086;51.076;13.722;2023-02-08T03:20:52;127.68;;;57.47;;
48263;SDS011;34086;51.076;13.722;2023-02-08T03:23:37;110.50;;;53.22;;
48263;SDS011;34086;51.076;13.722;2023-02-08T03:24:50;112.72;;;53.63;;
48263;SDS011;34086;51.076;13.722;2023-02-08T03:27:33;107.55;;;52.65;;
48263;SDS011;34086;51.076;13.722;2023-02-08T03:28:57;108.45;;;53.72;;
48263;SDS011;34086;51.076;13.722;2023-02-08T03:30:21;115.30;;;55.30;;
48263;SDS011;34086;51.076;13.722;2023-02-08T03:31:31;110.93;;;53.50;;
48263;SDS011;34086;51.076;13.722;2023-02-08T03:32:51;110.20;;;53.67;;
48263;SDS011;34086;51.076;13.722;2023-02-08T03:34:21;106.60;;;52.25;;
48263;SDS011;34086;51.076;13.722;2023-02-08T03:35:30;106.25;;;53.53;;
48263;SDS011;34086;51.076;13.722;2023-02-08T03:36:46;111.15;;;54.17;;
48263;SDS011;34086;51.076;13.722;2023-02-08T03:38:08;111.03;;;54.13;;
48263;SDS011;34086;51.076;13.722;2023-02-08T03:39:15;112.25;;;54.78;;
48263;SDS011;34086;51.076;13.722;2023-02-08T03:40:22;114.30;;;56.05;;
48263;SDS011;34086;51.076;13.722;2023-02-08T03:41:30;112.78;;;55.83;;
48263;SDS011;34086;51.076;13.722;2023-02-08T03:42:33;111.70;;;54.88;;
48263;SDS011;34086;51.076;13.722;2023-02-08T03:43:37;105.55;;;53.45;;
48263;SDS011;34086;51.076;13.722;2023-02-08T03:44:43;105.45;;;52.53;;
48263;SDS011;34086;51.076;13.722;2023-02-08T03:45:58;108.18;;;54.40;;
48263;SDS011;34086;51.076;13.722;2023-02-08T03:47:16;106.90;;;50.90;;
48263;SDS011;34086;51.076;13.722;2023-02-08T03:48:28;109.72;;;52.63;;
48263;SDS011;34086;51.076;13.722;2023-02-08T03:49:32;109.20;;;53.63;;
48263;SDS011;34086;51.076;13.722;2023-02-08T03:50:35;108.18;;;53.17;;
48263;SDS011;34086;51.076;13.722;2023-02-08T03:51:38;103.93;;;52.90;;
48263;SDS011;34086;51.076;13.722;2023-02-08T03:52:41;104.07;;;53.72;;
48263;SDS011;34086;51.076;13.722;2023-02-08T03:53:45;106.30;;;55.00;;
48263;SDS011;34086;51.076;13.722;2023-02-08T03:54:50;104.50;;;53.85;;
48263;SDS011;34086;51.076;13.722;2023-02-08T03:55:56;109.90;;;54.00;;
48263;SDS011;34086;51.076;13.722;2023-02-08T03:57:05;105.90;;;53.47;;
48263;SDS011;34086;51.076;13.722;2023-02-08T03:58:25;102.90;;;52.40;;
48263;SDS011;34086;51.076;13.722;2023-02-08T03:59:37;109.38;;;54.78;;
48263;SDS011;34086;51.076;13.722;2023-02-08T04:00:41;104.22;;;53.78;;
48263;SDS011;34086;51.076;13.722;2023-02-08T04:01:52;105.03;;;52.88;;
48263;SDS011;34086;51.076;13.722;2023-02-08T04:03:01;105.53;;;52.80;;
48263;SDS011;34086;51.076;13.722;2023-02-08T04:04:05;105.88;;;52.72;;
48263;SDS011;34086;51.076;13.722;2023-02-08T04:05:07;109.13;;;52.03;;
48263;SDS011;34086;51.076;13.722;2023-02-08T04:06:08;105.10;;;52.75;;
48263;SDS011;34086;51.076;13.722;2023-02-08T04:07:09;102.47;;;53.13;;
48263;SDS011;34086;51.076;13.722;2023-02-08T04:08:09;100.88;;;52.13;;
48263;SDS011;34086;51.076;13.722;2023-02-08T04:09:10;105.95;;;53.33;;
48263;SDS011;34086;51.076;13.722;2023-02-08T04:10:11;107.18;;;53.22;;
48263;SDS011;34086;51.076;13.722;2023-02-08T04:11:11;103.63;;;52.55;;
48263;SDS011;34086;51.076;13.722;2023-02-08T04:12:12;104.65;;;52.80;;
48263;SDS011;34086;51.076;13.722;2023-02-08T04:13:13;104.68;;;52.80;;
48263;SDS011;34086;51.076;13.722;2023-02-08T04:14:13;108.10;;;54.42;;
48263;SDS011;34086;51.076;13.722;2023-02-08T04:15:15;110.18;;;53.90;;
48263;SDS011;34086;51.076;13.722;2023-02-08T04:16:16;105.90;;;52.38;;
48263;SDS011;34086;51.076;13.722;2023-02-08T04:17:16;106.03;;;54.20;;
48263;SDS011;34086;51.076;13.722;2023-02-08T04:18:17;108.65;;;54.75;;
48263;SDS011;34086;51.076;13.722;2023-02-08T04:19:17;108.00;;;53.92;;
48263;SDS011;34086;51.076;13.722;2023-02-08T04:20:18;102.18;;;53.47;;
48263;SDS011;34086;51.076;13.722;2023-02-08T04:21:19;105.43;;;52.42;;
48263;SDS011;34086;51.076;13.722;2023-02-08T04:22:19;101.78;;;51.95;;
48263;SDS011;34086;51.076;13.722;2023-02-08T04:23:20;100.63;;;51.53;;
48263;SDS011;34086;51.076;13.722;2023-02-08T04:24:21;105.65;;;52.05;;
48263;SDS011;34086;51.076;13.722;2023-02-08T04:25:22;96.30;;;50.08;;
48263;SDS011;34086;51.076;13.722;2023-02-08T04:26:23;104.55;;;52.67;;
48263;SDS011;34086;51.076;13.722;2023-02-08T04:27:24;96.72;;;50.90;;
48263;SDS011;34086;51.076;13.722;2023-02-08T04:28:24;101.40;;;51.42;;
48263;SDS011;34086;51.076;13.722;2023-02-08T04:29:25;103.72;;;53.30;;
48263;SDS011;34086;51.076;13.722;2023-02-08T04:30:26;103.18;;;51.53;;
48263;SDS011;34086;51.076;13.722;2023-02-08T04:31:26;101.68;;;52.55;;
48263;SDS011;34086;51.076;13.722;2023-02-08T04:32:27;101.60;;;51.50;;
48263;SDS011;34086;51.076;13.722;2023-02-08T04:33:27;107.47;;;54.88;;
48263;SDS011;34086;51.076;13.722;2023-02-08T04:34:28;105.10;;;52.42;;
48263;SDS011;34086;51.076;13.722;2023-02-08T04:35:28;103.05;;;52.78;;
48263;SDS011;34086;51.076;13.722;2023-02-08T04:36:29;102.22;;;52.15;;
48263;SDS011;34086;51.076;13.722;2023-02-08T04:37:30;100.82;;;52.75;;
48263;SDS011;34086;51.076;13.722;2023-02-08T04:38:30;110.03;;;53.40;;
48263;SDS011;34086;51.076;13.722;2023-02-08T04:39:31;103.40;;;52.47;;
48263;SDS011;34086;51.076;13.722;2023-02-08T04:40:32;106.00;;;53.30;;
48263;SDS011;34086;51.076;13.722;2023-02-08T04:41:32;103.85;;;51.92;;
48263;SDS011;34086;51.076;13.722;2023-02-08T04:42:33;106.45;;;51.92;;
48263;SDS011;34086;51.076;13.722;2023-02-08T04:43:34;103.18;;;52.38;;
48263;SDS011;34086;51.076;13.722;2023-02-08T04:44:34;102.90;;;52.35;;
48263;SDS011;34086;51.076;13.722;2023-02-08T04:45:35;102.40;;;51.72;;
48263;SDS011;34086;51.076;13.722;2023-02-08T04:46:36;105.03;;;52.85;;
48263;SDS011;34086;51.076;13.722;2023-02-08T04:47:37;98.25;;;49.58;;
48263;SDS011;34086;51.076;13.722;2023-02-08T04:48:37;100.95;;;50.63;;
48263;SDS011;34086;51.076;13.722;2023-02-08T04:49:38;105.97;;;52.15;;
48263;SDS011;34086;51.076;13.722;2023-02-08T04:50:39;101.72;;;50.95;;
48263;SDS011;34086;51.076;13.722;2023-02-08T04:51:39;99.22;;;49.60;;
48263;SDS011;34086;51.076;13.722;2023-02-08T04:52:40;104.70;;;51.45;;
48263;SDS011;34086;51.076;13.722;2023-02-08T04:53:41;99.85;;;51.33;;
48263;SDS011;34086;51.076;13.722;2023-02-08T04:54:41;101.57;;;50.70;;
48263;SDS011;34086;51.076;13.722;2023-02-08T04:55:42;101.80;;;51.33;;
48263;SDS011;34086;51.076;13.722;2023-02-08T04:56:42;99.47;;;50.95;;
48263;SDS011;34086;51.076;13.722;2023-02-08T04:57:43;102.97;;;50.85;;
48263;SDS011;34086;51.076;13.722;2023-02-08T04:58:43;102.10;;;51.95;;
48263;SDS011;34086;51.076;13.722;2023-02-08T04:59:44;104.88;;;51.50;;
48263;SDS011;34086;51.076;13.722;2023-02-08T05:00:44;96.95;;;50.50;;
48263;SDS011;34086;51.076;13.722;2023-02-08T05:01:45;100.55;;;50.50;;
48263;SDS011;34086;51.076;13.722;2023-02-08T05:02:46;100.40;;;51.38;;
48263;SDS011;34086;51.076;13.722;2023-02-08T05:03:47;104.15;;;51.63;;
48263;SDS011;34086;51.076;13.722;2023-02-08T05:04:47;99.50;;;50.17;;
48263;SDS011;34086;51.076;13.722;2023-02-08T05:05:57;108.57;;;51.95;;
48263;SDS011;34086;51.076;13.722;2023-02-08T05:06:58;101.90;;;50.25;;
48263;SDS011;34086;51.076;13.722;2023-02-08T05:07:59;105.30;;;50.75;;
48263;SDS011;34086;51.076;13.722;2023-02-08T05:09:00;105.35;;;51.17;;
48263;SDS011;34086;51.076;13.722;2023-02-08T05:10:01;104.00;;;51.97;;
48263;SDS011;34086;51.076;13.722;2023-02-08T05:11:03;103.88;;;50.90;;
48263;SDS011;34086;51.076;13.722;2023-02-08T05:12:04;105.00;;;51.58;;
48263;SDS011;34086;51.076;13.722;2023-02-08T05:13:04;99.25;;;50.28;;
48263;SDS011;34086;51.076;13.722;2023-02-08T05:14:05;103.30;;;51.90;;
48263;SDS011;34086;51.076;13.722;2023-02-08T05:15:06;106.40;;;52.13;;
48263;SDS011;34086;51.076;13.722;2023-02-08T05:16:06;105.03;;;51.67;;
48263;SDS011;34086;51.076;13.722;2023-02-08T05:17:07;104.30;;;51.70;;
48263;SDS011;34086;51.076;13.722;2023-02-08T05:18:08;104.70;;;52.72;;
48263;SDS011;34086;51.076;13.722;2023-02-08T05:19:09;112.00;;;53.00;;
48263;SDS011;34086;51.076;13.722;2023-02-08T05:20:11;128.32;;;57.55;;
48263;SDS011;34086;51.076;13.722;2023-02-08T05:21:11;117.45;;;55.92;;
48263;SDS011;34086;51.076;13.722;2023-02-08T05:22:12;107.55;;;54.70;;
48263;SDS011;34086;51.076;13.722;2023-02-08T05:23:13;109.97;;;54.15;;
48263;SDS011;34086;51.076;13.722;2023-02-08T05:24:13;108.65;;;52.85;;
48263;SDS011;34086;51.076;13.722;2023-02-08T05:25:14;103.50;;;52.05;;
48263;SDS011;34086;51.076;13.722;2023-02-08T05:26:14;107.45;;;52.42;;
48263;SDS011;34086;51.076;13.722;2023-02-08T05:27:15;101.18;;;52.00;;
48263;SDS011;34086;51.076;13.722;2023-02-08T05:28:15;110.05;;;52.92;;
48263;SDS011;34086;51.076;13.722;2023-02-08T05:29:19;121.45;;;57.90;;
48263;SDS011;34086;51.076;13.722;2023-02-08T05:30:20;105.25;;;53.88;;
48263;SDS011;34086;51.076;13.722;2023-02-08T05:31:21;107.45;;;53.80;;
48263;SDS011;34086;51.076;13.722;2023-02-08T05:32:23;108.75;;;54.20;;
48263;SDS011;34086;51.076;13.722;2023-02-08T05:33:24;105.43;;;53.95;;
48263;SDS011;34086;51.076;13.722;2023-02-08T05:34:25;107.53;;;54.20;;
48263;SDS011;34086;51.076;13.722;2023-02-08T05:35:26;102.60;;;52.35;;
48263;SDS011;34086;51.076;13.722;2023-02-08T05:36:26;108.45;;;53.60;;
48263;SDS011;34086;51.076;13.722;2023-02-08T05:37:27;105.53;;;52.17;;
48263;SDS011;34086;51.076;13.722;2023-02-08T05:38:27;109.70;;;54.75;;
48263;SDS011;34086;51.076;13.722;2023-02-08T05:39:28;106.38;;;54.22;;
48263;SDS011;34086;51.076;13.722;2023-02-08T05:40:29;107.63;;;52.92;;
48263;SDS011;34086;51.076;13.722;2023-02-08T05:41:30;106.05;;;52.63;;
48263;SDS011;34086;51.076;13.722;2023-02-08T05:42:31;102.00;;;50.85;;
48263;SDS011;34086;51.076;13.722;2023-02-08T05:43:32;106.28;;;52.20;;
48263;SDS011;34086;51.076;13.722;2023-02-08T05:44:33;103.00;;;51.40;;
48263;SDS011;34086;51.076;13.722;2023-02-08T05:45:33;104.72;;;52.10;;
48263;SDS011;34086;51.076;13.722;2023-02-08T05:46:34;107.07;;;52.33;;
48263;SDS011;34086;51.076;13.722;2023-02-08T05:47:35;105.88;;;52.05;;
48263;SDS011;34086;51.076;13.722;2023-02-08T05:48:35;101.78;;;51.92;;
48263;SDS011;34086;51.076;13.722;2023-02-08T05:49:36;108.53;;;53.58;;
48263;SDS011;34086;51.076;13.722;2023-02-08T05:50:37;102.13;;;50.90;;
48263;SDS011;34086;51.076;13.722;2023-02-08T05:51:37;99.15;;;50.80;;
48263;SDS011;34086;51.076;13.722;2023-02-08T05:52:38;111.75;;;55.58;;
48263;SDS011;34086;51.076;13.722;2023-02-08T05:53:39;113.60;;;55.55;;
48263;SDS011;34086;51.076;13.722;2023-02-08T05:54:40;109.80;;;54.55;;
48263;SDS011;34086;51.076;13.722;2023-02-08T05:55:43;106.30;;;53.03;;
48263;SDS011;34086;51.076;13.722;2023-02-08T05:56:45;102.10;;;50.95;;
48263;SDS011;34086;51.076;13.722;2023-02-08T05:57:46;102.75;;;51.70;;
48263;SDS011;34086;51.076;13.722;2023-02-08T05:58:46;100.43;;;50.20;;
48263;SDS011;34086;51.076;13.722;2023-02-08T05:59:47;104.00;;;50.85;;
48263;SDS011;34086;51.076;13.722;2023-02-08T06:00:48;103.60;;;53.22;;
48263;SDS011;34086;51.076;13.722;2023-02-08T06:01:48;155.75;;;67.45;;
48263;SDS011;34086;51.076;13.722;2023-02-08T06:02:49;155.80;;;67.97;;
48263;SDS011;34086;51.076;13.722;2023-02-08T06:03:49;130.55;;;59.33;;
48263;SDS011;34086;51.076;13.722;2023-02-08T06:04:50;124.95;;;57.40;;
48263;SDS011;34086;51.076;13.722;2023-02-08T06:05:50;121.63;;;56.13;;
48263;SDS011;34086;51.076;13.722;2023-02-08T06:06:51;107.20;;;53.08;;
48263;SDS011;34086;51.076;13.722;2023-02-08T06:07:52;109.10;;;54.33;;
48263;SDS011;34086;51.076;13.722;2023-02-08T06:08:52;110.07;;;54.47;;
48263;SDS011;34086;51.076;13.722;2023-02-08T06:09:53;107.25;;;53.22;;
48263;SDS011;34086;51.076;13.722;2023-02-08T06:10:53;105.32;;;52.58;;
48263;SDS011;34086;51.076;13.722;2023-02-08T06:11:54;102.75;;;52.10;;
48263;SDS011;34086;51.076;13.722;2023-02-08T06:12:55;104.93;;;51.67;;
48263;SDS011;34086;51.076;13.722;2023-02-08T06:13:55;105.80;;;52.40;;
48263;SDS011;34086;51.076;13.722;2023-02-08T06:14:56;106.78;;;52.88;;
48263;SDS011;34086;51.076;13.722;2023-02-08T06:15:56;103.05;;;50.67;;
48263;SDS011;34086;51.076;13.722;2023-02-08T06:16:57;101.63;;;50.67;;
48263;SDS011;34086;51.076;13.722;2023-02-08T06:17:58;106.72;;;51.80;;
48263;SDS011;34086;51.076;13.722;2023-02-08T06:18:59;104.63;;;51.90;;
48263;SDS011;34086;51.076;13.722;2023-02-08T06:20:00;103.63;;;52.03;;
48263;SDS011;34086;51.076;13.722;2023-02-08T06:21:00;105.47;;;51.88;;
48263;SDS011;34086;51.076;13.722;2023-02-08T06:22:01;103.78;;;51.33;;
48263;SDS011;34086;51.076;13.722;2023-02-08T06:23:02;106.13;;;51.63;;
48263;SDS011;34086;51.076;13.722;2023-02-08T06:24:03;106.47;;;53.10;;
48263;SDS011;34086;51.076;13.722;2023-02-08T06:25:05;103.40;;;50.55;;